University Buffalo, New York
Current Conditions -  °F | °C
As of 3:54 AM on Saturday 20 Dec 2014 (Local Time) from KBUF Reporting Station
Broken Clouds Broken Clouds  
Wind Chill: 18°   Ceiling: 1700
Heat Index: 25°   Visibility: 9mi
Dew Point: 21°   Wind: 6mph
Humidity: 85%   Direction: 250°WSW
Pressure: 30.24"   Gusts: NA
Location:  42.9393°N, 78.8401°W
Report Text: KBUF 200854Z 25005KT 9SM BKN017 M04/M06 A3024 RMK AO2 SLP250 T10391061 53002
Loading
Personal Weather Stations






























Interactive Weather Map New forecast layout! Learn more

10-Day Weather Forecast

Advertisements
Track Severe Weather on mobile